< < Back
Terminal Aerodrome Forecast


Current Version              Previous Versions:   1  2  3  4  5  6  7  8  9  

Terminal Aerodrome Forecast

112
FTUS44 KOHX 211100
TAFCSV
TAF
KCSV 211120Z 2112/2212 05005KT P6SM SKC
     FM211500 08005KT P6SM BKN060
     FM220000 00000KT P6SM BKN070=



Latest METAR

726
SAUS70 KWBC 221000 RRG
MTRCSV
METAR KCSV 220953Z AUTO 00000KT 10SM CLR 01/M09 A3039 RMK AO2 SLP294
T00111089


USA.gov is the U.S. government's official web portal to all federal, state and local government web resources and services.